Midnight Wolf — HO7969 — position and weather

sailwx.info

Track history (hours):
 
Tides and Currents Weather Stations Pressure Air Temp Water Temp Dewpoint Dewpoint Depression Visibility Wind Speed Wind Dir Waves Ship Positions

Midnight Wolf

Last reported at 2014-Nov-27 22:32 UTC. Time now 2014-Nov-28 14:36 UTC.
Position N 18°10' W 063°34'.

Length 51 m; draft 3 m.

Type: Cargo ship. MMSI: 351880000.

Date/timePositionNaut miles runAvg speedWind from/ knotsBaromVisibWave heightAir tempDewpointWater temp
2014-Nov-27 22:32N 18°10' W 063°34'14 9.7
2014-Nov-27 21:09N 18°08' W 063°20'15 7.0
2014-Nov-27 19:04N 18°05' W 063°05'0 0.0
2014-Nov-27 18:31N 18°05' W 063°05'0 0.0
2014-Nov-27 17:31N 18°05' W 063°05'11 5.0
2014-Nov-27 15:21N 17°54' W 063°03'81 9.1
2014-Nov-27 06:27N 16°49' W 062°13'3 0.6
2014-Nov-27 01:33N 16°51' W 062°16'9 7.6
2014-Nov-27 00:21N 16°56' W 062°24'83 8.3
2014-Nov-26 14:24N 17°49' W 063°30'6 7.4
2014-Nov-26 13:33N 17°51' W 063°37'18 0.6
2014-Nov-25 10:19N 18°09' W 063°38'7 9.0
2014-Nov-25 09:33N 18°08' W 063°31'10 9.1
2014-Nov-25 08:30N 18°07' W 063°21'11 9.3
2014-Nov-25 07:18N 18°05' W 063°09'4 4.1
2014-Nov-25 06:16N 18°05' W 063°05'0 0.0
2014-Nov-25 05:31N 18°05' W 063°05'1 0.8
2014-Nov-25 04:29N 18°05' W 063°06'11 2.6
2014-Nov-25 00:29N 18°12' W 063°14'8 8.7
2014-Nov-24 23:32N 18°13' W 063°23'15 0.5
2014-Nov-23 16:31N 18°09' W 063°38'1010.2
2014-Nov-23 15:31N 18°08' W 063°28'1210.0
2014-Nov-23 14:21N 18°06' W 063°16'10 9.4
2014-Nov-23 13:20N 18°05' W 063°06'0 0.6
2014-Nov-23 12:32N 18°05' W 063°05'0 0.0
2014-Nov-23 11:24N 18°05' W 063°05'0 0.0
2014-Nov-23 10:33N 18°05' W 063°05'0 0.0
2014-Nov-23 09:28N 18°05' W 063°05'5 4.8
2014-Nov-23 08:23N 18°06' W 063°10'6 7.1
2014-Nov-23 07:28N 18°08' W 063°17'6 6.4
2014-Nov-23 06:32N 18°09' W 063°23'  
2014-Nov-20 23:04N 18°08' W 063°21'5 9.6
2014-Nov-20 22:33N 18°07' W 063°16'10 9.7
2014-Nov-20 21:31N 18°05' W 063°05'0 0.3
2014-Nov-20 20:31N 18°05' W 063°05'0 0.0
2014-Nov-20 19:31N 18°05' W 063°05'0 0.0
2014-Nov-20 07:30N 18°05' W 063°05'0 0.0
2014-Nov-20 06:05N 18°05' W 063°05'0 0.0
2014-Nov-20 05:33N 18°05' W 063°05'0 0.0
2014-Nov-20 04:32N 18°05' W 063°05'0 0.0
2014-Nov-20 03:33N 18°05' W 063°05'0 0.0
2014-Nov-20 01:29N 18°05' W 063°05'0 0.0
2014-Nov-20 00:03N 18°05' W 063°05'0 0.0
2014-Nov-19 23:30N 18°05' W 063°05'4 4.1
2014-Nov-19 22:29N 18°05' W 063°09'9 9.1
2014-Nov-19 21:29N 17°56' W 063°12'10 0.8
2014-Nov-19 09:19N 17°47' W 063°08'6 7.8
2014-Nov-19 08:32N 17°53' W 063°10'7 6.2
2014-Nov-19 07:28N 17°60' W 063°09'6 5.9
2014-Nov-19 06:22N 18°05' W 063°05'0 0.1
2014-Nov-19 05:17N 18°05' W 063°05'0 0.0
2014-Nov-19 04:31N 18°05' W 063°05'0 0.0
2014-Nov-19 03:28N 18°05' W 063°05'0 0.0
2014-Nov-19 02:22N 18°05' W 063°05'0 0.0
2014-Nov-19 01:28N 18°05' W 063°05'0 0.0
2014-Nov-19 00:27N 18°05' W 063°05'0 0.0
2014-Nov-18 23:30N 18°05' W 063°05'0 0.0
2014-Nov-18 22:17N 18°05' W 063°05'0 0.3
2014-Nov-18 21:29N 18°05' W 063°05'0 0.0
2014-Nov-18 20:30N 18°05' W 063°05'0 0.2
2014-Nov-18 19:31N 18°05' W 063°05'2 0.2
2014-Nov-18 09:12N 18°07' W 063°05'2 1.7
2014-Nov-18 08:14N 18°05' W 063°05'0 0.0
2014-Nov-18 07:32N 18°05' W 063°05'0 0.0
2014-Nov-18 06:30N 18°05' W 063°05'0 0.5
2014-Nov-18 05:32N 18°05' W 063°06'11 2.2
2014-Nov-18 00:27N 18°12' W 063°14'8 8.3
2014-Nov-17 23:32N 18°13' W 063°22'  
Track history (hours):
 
Tides and Currents Weather Stations Pressure Air Temp Water Temp Dewpoint Dewpoint Depression Visibility Wind Speed Wind Dir Waves Ship Positions

Midnight Wolf

Last reported at 2014-Nov-27 22:32 UTC. Time now 2014-Nov-28 14:36 UTC.
Position N 18°10' W 063°34'.

Length 51 m; draft 3 m.

Type: Cargo ship. MMSI: 351880000.

Date/timePositionNaut miles runAvg speedWind from/ knotsBaromVisibWave heightAir tempDewpointWater temp
2014-Nov-27 22:32N 18°10' W 063°34'14 9.7
2014-Nov-27 21:09N 18°08' W 063°20'15 7.0
2014-Nov-27 19:04N 18°05' W 063°05'0 0.0
2014-Nov-27 18:31N 18°05' W 063°05'0 0.0
2014-Nov-27 17:31N 18°05' W 063°05'11 5.0
2014-Nov-27 15:21N 17°54' W 063°03'81 9.1
2014-Nov-27 06:27N 16°49' W 062°13'3 0.6
2014-Nov-27 01:33N 16°51' W 062°16'9 7.6
2014-Nov-27 00:21N 16°56' W 062°24'83 8.3
2014-Nov-26 14:24N 17°49' W 063°30'6 7.4
2014-Nov-26 13:33N 17°51' W 063°37'18 0.6
2014-Nov-25 10:19N 18°09' W 063°38'7 9.0
2014-Nov-25 09:33N 18°08' W 063°31'10 9.1
2014-Nov-25 08:30N 18°07' W 063°21'11 9.3
2014-Nov-25 07:18N 18°05' W 063°09'4 4.1
2014-Nov-25 06:16N 18°05' W 063°05'0 0.0
2014-Nov-25 05:31N 18°05' W 063°05'1 0.8
2014-Nov-25 04:29N 18°05' W 063°06'11 2.6
2014-Nov-25 00:29N 18°12' W 063°14'8 8.7
2014-Nov-24 23:32N 18°13' W 063°23'15 0.5
2014-Nov-23 16:31N 18°09' W 063°38'1010.2
2014-Nov-23 15:31N 18°08' W 063°28'1210.0
2014-Nov-23 14:21N 18°06' W 063°16'10 9.4
2014-Nov-23 13:20N 18°05' W 063°06'0 0.6
2014-Nov-23 12:32N 18°05' W 063°05'0 0.0
2014-Nov-23 11:24N 18°05' W 063°05'0 0.0
2014-Nov-23 10:33N 18°05' W 063°05'0 0.0
2014-Nov-23 09:28N 18°05' W 063°05'5 4.8
2014-Nov-23 08:23N 18°06' W 063°10'6 7.1
2014-Nov-23 07:28N 18°08' W 063°17'6 6.4
2014-Nov-23 06:32N 18°09' W 063°23'  
2014-Nov-20 23:04N 18°08' W 063°21'5 9.6
2014-Nov-20 22:33N 18°07' W 063°16'10 9.7
2014-Nov-20 21:31N 18°05' W 063°05'0 0.3
2014-Nov-20 20:31N 18°05' W 063°05'0 0.0
2014-Nov-20 19:31N 18°05' W 063°05'0 0.0
2014-Nov-20 07:30N 18°05' W 063°05'0 0.0
2014-Nov-20 06:05N 18°05' W 063°05'0 0.0
2014-Nov-20 05:33N 18°05' W 063°05'0 0.0
2014-Nov-20 04:32N 18°05' W 063°05'0 0.0
2014-Nov-20 03:33N 18°05' W 063°05'0 0.0
2014-Nov-20 01:29N 18°05' W 063°05'0 0.0
2014-Nov-20 00:03N 18°05' W 063°05'0 0.0
2014-Nov-19 23:30N 18°05' W 063°05'4 4.1
2014-Nov-19 22:29N 18°05' W 063°09'9 9.1
2014-Nov-19 21:29N 17°56' W 063°12'10 0.8
2014-Nov-19 09:19N 17°47' W 063°08'6 7.8
2014-Nov-19 08:32N 17°53' W 063°10'7 6.2
2014-Nov-19 07:28N 17°60' W 063°09'6 5.9
2014-Nov-19 06:22N 18°05' W 063°05'0 0.1
2014-Nov-19 05:17N 18°05' W 063°05'0 0.0
2014-Nov-19 04:31N 18°05' W 063°05'0 0.0
2014-Nov-19 03:28N 18°05' W 063°05'0 0.0
2014-Nov-19 02:22N 18°05' W 063°05'0 0.0
2014-Nov-19 01:28N 18°05' W 063°05'0 0.0
2014-Nov-19 00:27N 18°05' W 063°05'0 0.0
2014-Nov-18 23:30N 18°05' W 063°05'0 0.0
2014-Nov-18 22:17N 18°05' W 063°05'0 0.3
2014-Nov-18 21:29N 18°05' W 063°05'0 0.0
2014-Nov-18 20:30N 18°05' W 063°05'0 0.2
2014-Nov-18 19:31N 18°05' W 063°05'2 0.2
2014-Nov-18 09:12N 18°07' W 063°05'2 1.7
2014-Nov-18 08:14N 18°05' W 063°05'0 0.0
2014-Nov-18 07:32N 18°05' W 063°05'0 0.0
2014-Nov-18 06:30N 18°05' W 063°05'0 0.5
2014-Nov-18 05:32N 18°05' W 063°06'11 2.2
2014-Nov-18 00:27N 18°12' W 063°14'8 8.3
2014-Nov-17 23:32N 18°13' W 063°22'  

Dump ship's entire track history